createdAt,value
2022-12-03T00:00:13.432Z,99916.50
2022-12-03T00:02:41.985Z,99882.91
2022-12-03T00:05:11.660Z,99947.34
2022-12-03T00:07:40.377Z,99947.91
2022-12-03T00:10:08.763Z,99930.13
2022-12-03T00:12:36.781Z,99918.31
2022-12-03T00:15:05.628Z,99924.69
2022-12-03T00:17:33.267Z,99876.53
2022-12-03T00:20:01.327Z,99872.19
2022-12-03T00:22:29.117Z,99920.53
2022-12-03T00:24:56.975Z,99873.97
2022-12-03T00:27:24.823Z,99909.97
2022-12-03T00:29:52.833Z,99922.38
2022-12-03T00:32:20.778Z,99885.81
2022-12-03T00:34:48.514Z,99914.00
2022-12-03T00:37:18.289Z,99880.50
2022-12-03T00:39:46.618Z,99892.44
2022-12-03T00:42:14.511Z,99835.34
2022-12-03T00:44:42.332Z,99882.97
2022-12-03T00:47:10.469Z,99839.09
2022-12-03T00:49:39.134Z,99841.00
2022-12-03T00:52:06.766Z,99887.94
2022-12-03T00:54:34.800Z,99868.81
2022-12-03T00:57:02.532Z,99838.34
2022-12-03T00:59:30.173Z,99864.47
2022-12-03T01:01:57.980Z,99885.41
2022-12-03T01:04:25.825Z,99895.81
2022-12-03T01:06:53.721Z,99868.91
2022-12-03T01:09:21.762Z,99832.25
2022-12-03T01:11:49.623Z,99893.09
2022-12-03T01:14:19.498Z,99864.28
2022-12-03T01:16:48.137Z,99841.16
2022-12-03T01:19:17.024Z,99823.41
2022-12-03T01:21:47.602Z,99871.19
2022-12-03T01:24:15.544Z,99871.47
2022-12-03T01:26:43.520Z,99868.47
2022-12-03T01:29:11.256Z,99859.59
2022-12-03T01:31:57.473Z,99877.63
2022-12-03T01:34:25.169Z,99853.88
2022-12-03T01:36:52.945Z,99837.31
2022-12-03T01:39:20.809Z,99855.84
2022-12-03T01:41:50.526Z,99872.91
2022-12-03T01:44:27.519Z,99822.59
2022-12-03T01:46:57.657Z,99865.88
2022-12-03T01:49:30.316Z,99859.66
2022-12-03T01:51:59.204Z,99756.72
2022-12-03T01:54:31.588Z,99832.81
2022-12-03T01:56:59.251Z,99786.22
2022-12-03T01:59:34.607Z,99842.25
2022-12-03T02:02:19.323Z,99843.06
2022-12-03T02:04:47.248Z,99847.34
2022-12-03T02:07:35.222Z,99846.44
2022-12-03T02:10:04.485Z,99830.84
2022-12-03T02:12:38.259Z,99838.69
2022-12-03T02:15:07.197Z,99785.06
2022-12-03T02:17:35.397Z,99834.75
2022-12-03T02:20:05.417Z,99729.97
2022-12-03T02:23:01.763Z,99834.34
2022-12-03T02:25:32.552Z,99799.06
2022-12-03T02:28:00.987Z,99830.31
2022-12-03T02:30:30.423Z,99827.84
2022-12-03T02:32:58.949Z,99797.97
2022-12-03T02:35:33.759Z,99811.31
2022-12-03T02:38:19.441Z,99762.88
2022-12-03T02:40:50.210Z,99745.16
2022-12-03T02:43:20.371Z,99819.63
2022-12-03T02:45:53.380Z,99791.75
2022-12-03T02:48:44.337Z,99768.38
2022-12-03T02:51:12.083Z,99787.72
2022-12-03T02:53:44.864Z,99762.38
2022-12-03T02:56:15.287Z,99807.00
2022-12-03T02:58:45.393Z,99805.09
2022-12-03T03:01:15.536Z,99803.19
2022-12-03T03:03:45.022Z,99802.97
2022-12-03T03:06:13.423Z,99804.94
2022-12-03T03:08:42.547Z,99775.56
2022-12-03T03:11:10.515Z,99767.78
2022-12-03T03:13:39.324Z,99755.91
2022-12-03T03:16:07.794Z,99755.56
2022-12-03T03:18:36.269Z,99734.97
2022-12-03T03:21:05.222Z,99784.66
2022-12-03T03:23:33.237Z,99781.72
2022-12-03T03:26:06.012Z,99762.06
2022-12-03T03:28:41.732Z,99768.66
2022-12-03T03:31:12.969Z,99755.19
2022-12-03T03:33:43.151Z,99702.22
2022-12-03T03:36:12.594Z,99728.31
2022-12-03T03:38:42.034Z,99769.56
2022-12-03T03:41:11.139Z,99767.41
2022-12-03T03:43:40.951Z,99687.38
2022-12-03T03:46:09.803Z,99733.72
2022-12-03T03:48:38.537Z,99766.25
2022-12-03T03:51:10.006Z,99762.66
2022-12-03T03:53:42.521Z,99767.50
2022-12-03T03:56:11.034Z,99726.47
2022-12-03T03:58:38.944Z,99768.50
2022-12-03T04:01:07.550Z,99772.03
2022-12-03T04:03:36.086Z,99775.28
2022-12-03T04:06:05.502Z,99753.72
2022-12-03T04:08:33.405Z,99704.78
2022-12-03T04:11:21.316Z,99774.63
2022-12-03T04:13:49.104Z,99750.28
2022-12-03T04:16:16.956Z,99755.41
2022-12-03T04:18:44.859Z,99770.41
2022-12-03T04:21:36.709Z,99780.75
2022-12-03T04:24:06.362Z,99776.22
2022-12-03T04:26:53.319Z,99740.75
2022-12-03T04:29:21.867Z,99772.41
2022-12-03T04:32:09.212Z,99746.22
2022-12-03T04:34:55.616Z,99727.84
2022-12-03T04:37:23.455Z,99757.66
2022-12-03T04:39:51.576Z,99763.31
2022-12-03T04:42:19.417Z,99719.28
2022-12-03T04:44:47.321Z,99768.66
2022-12-03T04:47:20.709Z,99725.66
2022-12-03T04:49:52.183Z,99707.69
2022-12-03T04:52:21.092Z,99765.16
2022-12-03T04:54:48.769Z,99767.34
2022-12-03T04:57:16.721Z,99766.25
2022-12-03T04:59:45.768Z,99727.16
2022-12-03T05:02:13.519Z,99723.13
2022-12-03T05:04:41.271Z,99713.69
2022-12-03T05:07:08.956Z,99727.09
2022-12-03T05:09:36.751Z,99763.09
2022-12-03T05:12:04.855Z,99721.16
2022-12-03T05:14:32.614Z,99730.25
2022-12-03T05:17:00.381Z,99714.72
2022-12-03T05:19:48.255Z,99723.59
2022-12-03T05:22:15.879Z,99758.00
2022-12-03T05:24:43.620Z,99758.25
2022-12-03T05:27:11.411Z,99749.09
2022-12-03T05:29:39.120Z,99693.81
2022-12-03T05:32:07.152Z,99754.50
2022-12-03T05:34:34.868Z,99750.69
2022-12-03T05:37:03.200Z,99759.41
2022-12-03T05:39:31.109Z,99741.09
2022-12-03T05:42:17.544Z,99748.22
2022-12-03T05:44:45.594Z,99739.06
2022-12-03T05:47:13.519Z,99707.50
2022-12-03T05:49:41.690Z,99746.22
2022-12-03T05:52:09.606Z,99704.78
2022-12-03T05:54:37.513Z,99757.91
2022-12-03T05:57:05.675Z,99763.84
2022-12-03T05:59:33.320Z,99741.78
2022-12-03T06:02:01.082Z,99707.03
2022-12-03T06:04:28.986Z,99708.44
2022-12-03T06:06:57.241Z,99706.47
2022-12-03T06:09:27.426Z,99763.25
2022-12-03T06:11:55.270Z,99712.19
2022-12-03T06:14:23.154Z,99723.53
2022-12-03T06:16:50.969Z,99726.84
2022-12-03T06:19:20.232Z,99735.03
2022-12-03T06:21:48.026Z,99784.34
2022-12-03T06:24:15.666Z,99729.97
2022-12-03T06:26:43.360Z,99704.47
2022-12-03T06:29:11.135Z,99735.94
2022-12-03T06:31:38.798Z,99776.72
2022-12-03T06:34:07.343Z,99775.94
2022-12-03T06:36:35.158Z,99740.75
2022-12-03T06:39:02.827Z,99776.91
2022-12-03T06:41:31.393Z,99771.41
2022-12-03T06:43:59.088Z,99752.50
2022-12-03T06:46:26.911Z,99759.16
2022-12-03T06:48:54.706Z,99769.56
2022-12-03T06:51:23.201Z,99755.66
2022-12-03T06:53:50.827Z,99763.41
2022-12-03T06:56:22.133Z,99772.72
2022-12-03T06:58:50.198Z,99721.34
2022-12-03T07:01:18.126Z,99738.56
2022-12-03T07:03:45.932Z,99759.56
2022-12-03T07:06:13.862Z,99757.00
2022-12-03T07:08:41.679Z,99749.59
2022-12-03T07:11:30.306Z,99720.28
2022-12-03T07:14:05.464Z,99772.16
2022-12-03T07:16:35.349Z,99741.47
2022-12-03T07:19:05.170Z,99755.47
2022-12-03T07:21:32.889Z,99754.44
2022-12-03T07:24:00.788Z,99766.53
2022-12-03T07:26:28.813Z,99768.75
2022-12-03T07:28:56.530Z,99727.41
2022-12-03T07:31:24.493Z,99709.28
2022-12-03T07:33:52.344Z,99756.06
2022-12-03T07:36:20.686Z,99735.88
2022-12-03T07:38:48.710Z,99726.41
2022-12-03T07:41:16.913Z,99725.81
2022-12-03T07:43:45.465Z,99779.16
2022-12-03T07:46:13.174Z,99750.59
2022-12-03T07:48:41.133Z,99762.31
2022-12-03T07:51:14.247Z,99771.19
2022-12-03T07:53:43.273Z,99782.59
2022-12-03T07:56:11.478Z,99736.66
2022-12-03T07:58:39.543Z,99772.34
2022-12-03T08:01:07.400Z,99776.97
2022-12-03T08:03:35.204Z,99715.06
2022-12-03T08:06:03.215Z,99755.03
2022-12-03T08:08:31.576Z,99742.09
2022-12-03T08:11:02.216Z,99704.13
2022-12-03T08:13:30.064Z,99755.56
2022-12-03T08:16:01.132Z,99709.13
2022-12-03T08:18:29.117Z,99773.31
2022-12-03T08:20:57.694Z,99727.00
2022-12-03T08:23:28.426Z,99760.28
2022-12-03T08:25:56.193Z,99759.16
2022-12-03T08:28:28.511Z,99743.00
2022-12-03T08:31:07.540Z,99762.31
2022-12-03T08:33:37.859Z,99767.81
2022-12-03T08:36:30.834Z,99765.41
2022-12-03T08:39:16.615Z,99754.13
2022-12-03T08:42:14.401Z,99716.22
2022-12-03T08:44:42.089Z,99722.06
2022-12-03T08:47:09.902Z,99777.31
2022-12-03T08:49:38.026Z,99710.66
2022-12-03T08:52:33.363Z,99770.53
2022-12-03T08:55:23.386Z,99750.97
2022-12-03T08:57:51.036Z,99730.94
2022-12-03T09:00:24.340Z,99778.41
2022-12-03T09:02:55.770Z,99761.09
2022-12-03T09:05:27.918Z,99736.63
2022-12-03T09:07:55.640Z,99724.94
2022-12-03T09:10:23.569Z,99781.13
2022-12-03T09:12:51.302Z,99772.31
2022-12-03T09:15:18.928Z,99786.25
2022-12-03T09:17:49.175Z,99777.38
2022-12-03T09:20:16.999Z,99791.59
2022-12-03T09:22:44.728Z,99780.72
2022-12-03T09:25:12.453Z,99771.28
2022-12-03T09:27:40.112Z,99765.03
2022-12-03T09:30:08.191Z,99753.69
2022-12-03T09:32:35.883Z,99776.25
2022-12-03T09:35:04.024Z,99774.03
2022-12-03T09:37:32.216Z,99752.09
2022-12-03T09:40:00.297Z,99726.56
2022-12-03T09:42:28.349Z,99766.81
2022-12-03T09:44:56.196Z,99776.50
2022-12-03T09:47:25.302Z,99770.44
2022-12-03T09:49:53.350Z,99688.97
2022-12-03T09:52:27.953Z,99733.25
2022-12-03T09:54:56.111Z,99742.84
2022-12-03T09:57:24.493Z,99737.44
2022-12-03T09:59:52.677Z,99727.44
2022-12-03T10:02:31.122Z,99728.66
2022-12-03T10:04:59.091Z,99737.91
2022-12-03T10:07:26.940Z,99731.69
2022-12-03T10:09:54.952Z,99763.19
2022-12-03T10:12:24.805Z,99704.34
2022-12-03T10:14:54.571Z,99738.72
2022-12-03T10:17:22.558Z,99740.31
2022-12-03T10:19:51.896Z,99682.91
2022-12-03T10:22:19.938Z,99752.56
2022-12-03T10:25:14.837Z,99747.03
2022-12-03T10:27:43.041Z,99701.78
2022-12-03T10:30:19.942Z,99741.06
2022-12-03T10:32:50.470Z,99709.06
2022-12-03T10:35:22.079Z,99738.16
2022-12-03T10:38:28.441Z,99697.31
2022-12-03T10:40:56.013Z,99685.25
2022-12-03T10:43:25.782Z,99718.00
2022-12-03T10:46:03.884Z,99708.06
2022-12-03T10:48:32.202Z,99713.88
2022-12-03T10:51:04.372Z,99715.78
2022-12-03T10:53:34.584Z,99698.09
2022-12-03T10:56:06.106Z,99678.63
2022-12-03T10:58:41.012Z,99668.06
2022-12-03T11:01:25.731Z,99670.31
2022-12-03T11:04:01.426Z,99674.94
2022-12-03T11:06:31.463Z,99702.91
2022-12-03T11:09:03.839Z,99696.13
2022-12-03T11:11:34.749Z,99708.50
2022-12-03T11:14:04.091Z,99700.44
2022-12-03T11:16:41.077Z,99706.56
2022-12-03T11:19:39.114Z,99698.50
2022-12-03T11:22:06.979Z,99699.81
2022-12-03T11:24:36.390Z,99654.72
2022-12-03T11:27:04.123Z,99699.00
2022-12-03T11:29:54.463Z,99695.75
2022-12-03T11:32:59.517Z,99694.53
2022-12-03T11:35:36.392Z,99696.25
2022-12-03T11:38:38.467Z,99696.69
2022-12-03T11:41:18.879Z,99669.28
2022-12-03T11:43:53.634Z,99684.34
2022-12-03T11:46:25.008Z,99670.56
2022-12-03T11:48:55.813Z,99680.53
2022-12-03T11:51:27.307Z,99678.31
2022-12-03T11:53:57.969Z,99675.28
2022-12-03T11:56:30.903Z,99646.16
2022-12-03T11:59:05.497Z,99670.47
2022-12-03T12:01:39.378Z,99657.97
2022-12-03T12:04:27.115Z,99648.91
2022-12-03T12:06:54.698Z,99657.56
2022-12-03T12:09:55.487Z,99647.66
2022-12-03T12:12:38.691Z,99609.59
2022-12-03T12:15:41.888Z,99643.84
2022-12-03T12:18:42.099Z,99633.09
2022-12-03T12:21:48.629Z,99633.09
2022-12-03T12:24:36.652Z,99634.22
2022-12-03T12:27:09.236Z,99633.69
2022-12-03T12:29:38.863Z,99638.66
2022-12-03T12:32:09.873Z,99630.00
2022-12-03T12:34:39.273Z,99509.97
2022-12-03T12:37:33.955Z,99610.69
2022-12-03T12:40:11.734Z,99622.16
2022-12-03T12:42:50.337Z,99607.88
2022-12-03T12:45:26.532Z,99617.22
2022-12-03T12:48:13.437Z,99614.81
2022-12-03T12:50:43.806Z,99620.25
2022-12-03T12:53:11.541Z,99611.56
2022-12-03T12:55:40.342Z,99606.38
2022-12-03T12:58:15.216Z,99602.44
2022-12-03T13:00:42.979Z,99607.25
2022-12-03T13:03:12.865Z,99596.63
2022-12-03T13:05:45.621Z,99589.09
2022-12-03T13:08:30.352Z,99595.81
2022-12-03T13:11:01.467Z,99564.19
2022-12-03T13:13:30.707Z,99580.56
2022-12-03T13:16:07.262Z,99585.59
2022-12-03T13:18:41.528Z,99577.47
2022-12-03T13:21:36.796Z,99595.25
2022-12-03T13:24:30.282Z,99589.22
2022-12-03T13:27:01.699Z,99574.94
2022-12-03T13:29:29.514Z,99541.50
2022-12-03T13:32:00.241Z,99588.47
2022-12-03T13:34:36.951Z,99579.34
2022-12-03T13:37:14.373Z,99539.84
2022-12-03T13:39:51.085Z,99582.78
2022-12-03T13:42:46.701Z,99583.31
2022-12-03T13:45:14.897Z,99588.94
2022-12-03T13:47:47.670Z,99585.28
2022-12-03T13:50:30.646Z,99576.81
2022-12-03T13:52:58.184Z,99581.25
2022-12-03T13:55:28.666Z,99582.19
2022-12-03T13:58:06.836Z,99540.31
2022-12-03T14:00:36.114Z,99575.03
2022-12-03T14:03:05.190Z,99531.66
2022-12-03T14:05:33.073Z,99534.88
2022-12-03T14:08:04.008Z,99583.97
2022-12-03T14:10:31.814Z,99586.69
2022-12-03T14:12:59.493Z,99561.00
2022-12-03T14:15:27.179Z,99554.16
2022-12-03T14:17:55.093Z,99534.88
2022-12-03T14:20:23.060Z,99584.03
2022-12-03T14:22:58.852Z,99533.66
2022-12-03T14:25:27.209Z,99557.75
2022-12-03T14:27:54.790Z,99515.97
2022-12-03T14:30:22.639Z,99531.03
2022-12-03T14:33:08.759Z,99575.81
2022-12-03T14:35:36.592Z,99542.78
2022-12-03T14:38:04.369Z,99553.03
2022-12-03T14:40:32.247Z,99567.34
2022-12-03T14:42:59.914Z,99570.69
2022-12-03T14:45:30.053Z,99557.47
2022-12-03T14:47:57.740Z,99582.38
2022-12-03T14:50:26.522Z,99580.03
2022-12-03T14:52:54.274Z,99587.56
2022-12-03T14:55:22.395Z,99581.94
2022-12-03T14:57:57.825Z,99545.31
2022-12-03T15:00:25.644Z,99572.19
2022-12-03T15:02:53.241Z,99602.69
2022-12-03T15:05:26.618Z,99558.34
2022-12-03T15:07:56.662Z,99592.88
2022-12-03T15:10:24.502Z,99605.84
2022-12-03T15:12:52.167Z,99592.50
2022-12-03T15:15:20.009Z,99597.03
2022-12-03T15:17:47.787Z,99593.69
2022-12-03T15:20:15.717Z,99609.25
2022-12-03T15:22:43.572Z,99611.84
2022-12-03T15:25:11.505Z,99609.75
2022-12-03T15:27:39.072Z,99593.00
2022-12-03T15:30:07.718Z,99610.19
2022-12-03T15:32:35.576Z,99617.66
2022-12-03T15:35:03.240Z,99608.44
2022-12-03T15:37:31.092Z,99541.28
2022-12-03T15:39:59.072Z,99532.06
2022-12-03T15:42:28.271Z,99625.16
2022-12-03T15:44:56.689Z,99608.31
2022-12-03T15:47:24.452Z,99621.38
2022-12-03T15:49:52.381Z,99607.41
2022-12-03T15:52:20.440Z,99630.38
2022-12-03T15:54:50.302Z,99609.56
2022-12-03T15:57:17.882Z,99615.25
2022-12-03T15:59:45.621Z,99569.78
2022-12-03T16:02:13.601Z,99624.31
2022-12-03T16:04:41.382Z,99618.25
2022-12-03T16:07:09.934Z,99626.56
2022-12-03T16:09:37.913Z,99620.31
2022-12-03T16:12:05.746Z,99616.97
2022-12-03T16:14:33.827Z,99586.78
2022-12-03T16:17:01.661Z,99619.19
2022-12-03T16:19:29.376Z,99580.72
2022-12-03T16:21:57.364Z,99559.22
2022-12-03T16:24:25.642Z,99608.81
2022-12-03T16:26:53.209Z,99628.16
2022-12-03T16:29:21.013Z,99601.44
2022-12-03T16:31:48.717Z,99553.38
2022-12-03T16:34:16.765Z,99633.25
2022-12-03T16:36:45.944Z,99604.72
2022-12-03T16:39:14.278Z,99585.31
2022-12-03T16:41:42.192Z,99571.38
2022-12-03T16:44:20.341Z,99647.94
2022-12-03T16:46:48.149Z,99652.41
2022-12-03T16:49:16.106Z,99596.00
2022-12-03T16:51:43.829Z,99610.00
2022-12-03T16:54:12.072Z,99658.50
2022-12-03T16:56:39.636Z,99661.75
2022-12-03T16:59:07.484Z,99607.56
2022-12-03T17:01:35.344Z,99498.88
2022-12-03T17:04:04.380Z,99648.34
2022-12-03T17:06:32.061Z,99643.94
2022-12-03T17:08:59.664Z,99638.28
2022-12-03T17:11:27.523Z,99662.03
2022-12-03T17:13:55.156Z,99667.28
2022-12-03T17:16:23.133Z,99653.91
2022-12-03T17:18:51.080Z,99641.56
2022-12-03T17:21:20.123Z,99603.16
2022-12-03T17:23:51.172Z,99658.00
2022-12-03T17:26:19.381Z,99589.34
2022-12-03T17:28:47.495Z,99598.31
2022-12-03T17:31:15.332Z,99652.00
2022-12-03T17:33:43.216Z,99670.72
2022-12-03T17:36:10.970Z,99655.44
2022-12-03T17:38:39.416Z,99637.25
2022-12-03T17:41:07.812Z,99670.22
2022-12-03T17:43:35.684Z,99677.88
2022-12-03T17:46:06.840Z,99652.25
2022-12-03T17:48:35.021Z,99677.97
2022-12-03T17:51:02.746Z,99627.88
2022-12-03T17:53:30.305Z,99652.34
2022-12-03T17:55:57.977Z,99645.34
2022-12-03T17:58:26.899Z,99674.75
2022-12-03T18:00:58.792Z,99693.25
2022-12-03T18:03:30.237Z,99659.28
2022-12-03T18:05:58.059Z,99659.44
2022-12-03T18:08:25.809Z,99690.63
2022-12-03T18:10:53.691Z,99689.00
2022-12-03T18:13:21.729Z,99695.25
2022-12-03T18:15:49.575Z,99657.44
2022-12-03T18:18:17.457Z,99705.13
2022-12-03T18:20:45.127Z,99600.75
2022-12-03T18:23:13.171Z,99677.88
2022-12-03T18:25:42.112Z,99704.81
2022-12-03T18:28:12.951Z,99604.97
2022-12-03T18:30:40.791Z,99625.88
2022-12-03T18:33:09.080Z,99701.00
2022-12-03T18:35:36.788Z,99700.69
2022-12-03T18:38:04.662Z,99647.13
2022-12-03T18:40:32.285Z,99701.78
2022-12-03T18:43:00.227Z,99686.03
2022-12-03T18:45:28.733Z,99676.38
2022-12-03T18:47:56.515Z,99693.25
2022-12-03T18:50:24.329Z,99648.91
2022-12-03T18:52:52.138Z,99713.56
2022-12-03T18:55:22.683Z,99708.75
2022-12-03T18:57:50.313Z,99714.97
2022-12-03T19:00:18.401Z,99713.28
2022-12-03T19:03:02.507Z,99719.13
2022-12-03T19:05:33.345Z,99716.50
2022-12-03T19:08:02.057Z,99689.75
2022-12-03T19:10:30.045Z,99694.41
2022-12-03T19:12:57.846Z,99667.28
2022-12-03T19:15:25.648Z,99672.31
2022-12-03T19:17:53.591Z,99677.88
2022-12-03T19:20:21.562Z,99721.34
2022-12-03T19:22:49.256Z,99716.41
2022-12-03T19:25:17.230Z,99685.81
2022-12-03T19:27:45.073Z,99664.88
2022-12-03T19:30:13.108Z,99678.59
2022-12-03T19:32:40.816Z,99720.00
2022-12-03T19:35:11.588Z,99721.31
2022-12-03T19:37:39.326Z,99719.00
2022-12-03T19:40:07.695Z,99716.28
2022-12-03T19:42:36.209Z,99691.06
2022-12-03T19:45:04.770Z,99673.56
2022-12-03T19:47:33.974Z,99725.44
2022-12-03T19:50:01.697Z,99715.16
2022-12-03T19:52:30.055Z,99729.34
2022-12-03T19:54:57.617Z,99718.75
2022-12-03T19:57:25.373Z,99704.50
2022-12-03T19:59:54.952Z,99727.22
2022-12-03T20:02:23.022Z,99623.94
2022-12-03T20:04:50.953Z,99706.03
2022-12-03T20:07:18.699Z,99673.53
2022-12-03T20:09:46.388Z,99706.69
2022-12-03T20:12:14.052Z,99728.81
2022-12-03T20:14:43.190Z,99641.69
2022-12-03T20:17:11.341Z,99733.47
2022-12-03T20:19:39.108Z,99736.69
2022-12-03T20:22:06.815Z,99736.59
2022-12-03T20:24:34.589Z,99702.91
2022-12-03T20:27:02.613Z,99701.31
2022-12-03T20:29:30.601Z,99689.63
2022-12-03T20:31:59.896Z,99750.06
2022-12-03T20:34:27.760Z,99687.22
2022-12-03T20:36:55.507Z,99715.47
2022-12-03T20:39:25.854Z,99692.06
2022-12-03T20:41:53.829Z,99713.78
2022-12-03T20:44:21.721Z,99728.88
2022-12-03T20:46:49.698Z,99671.34
2022-12-03T20:49:17.357Z,99674.94
2022-12-03T20:51:45.303Z,99673.03
2022-12-03T20:54:12.862Z,99732.47
2022-12-03T20:56:42.076Z,99728.06
2022-12-03T20:59:12.944Z,99714.47
2022-12-03T21:01:41.517Z,99708.75
2022-12-03T21:04:10.982Z,99699.69
2022-12-03T21:06:38.684Z,99691.25
2022-12-03T21:09:07.898Z,99708.44
2022-12-03T21:11:39.163Z,99692.03
2022-12-03T21:14:07.814Z,99715.47
2022-12-03T21:17:07.377Z,99715.16
2022-12-03T21:19:27.328Z,99684.91
2022-12-03T21:21:55.110Z,99692.44
2022-12-03T21:24:23.171Z,99716.19
2022-12-03T21:26:51.112Z,99736.09
2022-12-03T21:29:19.043Z,99719.41
2022-12-03T21:31:46.769Z,99694.84
2022-12-03T21:34:14.735Z,99732.47
2022-12-03T21:36:42.671Z,99641.66
2022-12-03T21:39:10.659Z,99654.53
2022-12-03T21:41:38.362Z,99752.63
2022-12-03T21:44:06.095Z,99719.44
2022-12-03T21:47:10.773Z,99768.69
2022-12-03T21:49:23.492Z,99745.09
2022-12-03T21:51:51.330Z,99749.09
2022-12-03T21:54:19.412Z,99745.78
2022-12-03T21:56:47.368Z,99743.75
2022-12-03T21:59:14.975Z,99751.00
2022-12-03T22:01:46.926Z,99748.28
2022-12-03T22:04:14.980Z,99750.22
2022-12-03T22:06:42.636Z,99754.84
2022-12-03T22:09:10.506Z,99737.50
2022-12-03T22:11:38.220Z,99736.44
2022-12-03T22:14:07.228Z,99744.16
2022-12-03T22:16:34.981Z,99722.63
2022-12-03T22:19:02.733Z,99715.91
2022-12-03T22:21:30.500Z,99717.03
2022-12-03T22:23:58.358Z,99742.78
2022-12-03T22:26:26.625Z,99741.88
2022-12-03T22:28:54.359Z,99746.38
2022-12-03T22:31:22.276Z,99719.81
2022-12-03T22:33:50.069Z,99704.50
2022-12-03T22:36:21.565Z,99700.50
2022-12-03T22:38:50.587Z,99725.44
2022-12-03T22:41:19.563Z,99738.31
2022-12-03T22:43:48.249Z,99746.19
2022-12-03T22:46:17.004Z,99744.59
2022-12-03T22:48:46.424Z,99753.53
2022-12-03T22:51:18.538Z,99764.69
2022-12-03T22:53:46.716Z,99756.66
2022-12-03T22:56:14.774Z,99738.66
2022-12-03T22:58:42.444Z,99767.72
2022-12-03T23:01:20.522Z,99717.75
2022-12-03T23:03:48.504Z,99744.84
2022-12-03T23:06:16.677Z,99762.47
2022-12-03T23:08:44.384Z,99744.09
2022-12-03T23:11:12.843Z,99762.97
2022-12-03T23:13:40.683Z,99737.19
2022-12-03T23:16:14.266Z,99760.38
2022-12-03T23:18:42.501Z,99727.22
2022-12-03T23:21:14.432Z,99762.81
2022-12-03T23:23:41.994Z,99735.25
2022-12-03T23:26:12.229Z,99771.69
2022-12-03T23:28:41.271Z,99752.94
2022-12-03T23:31:23.314Z,99772.47
2022-12-03T23:33:52.237Z,99758.00
2022-12-03T23:36:21.361Z,99767.16
2022-12-03T23:38:49.580Z,99744.69
2022-12-03T23:41:20.683Z,99773.66
2022-12-03T23:43:48.589Z,99755.66
2022-12-03T23:46:22.509Z,99768.34
2022-12-03T23:48:52.258Z,99722.94
2022-12-03T23:51:25.015Z,99764.03
2022-12-03T23:53:54.542Z,99714.97
2022-12-03T23:56:25.813Z,99751.53
2022-12-03T23:58:53.831Z,99736.44
